Time;durP1;ratioP1;P1;durP2;ratioP2;P2;SDS_P1;SDS_P2;PMS_P1;PMS_P2;Temp;Humidity;BMP_temperature;BMP_pressure;BME280_temperature;BME280_humidity;BME280_pressure;Samples;Min_cycle;Max_cycle;Signal;HPM_P1;HPM_P2
2021/12/01 00:04:40;;;;;;;10.88;2.33;;;;;;;6.38;100.00;98220.22;10454447;28;20217;-74
2021/12/01 00:09:40;;;;;;;8.40;1.98;;;;;;;6.47;100.00;98213.81;10452163;28;20216;-75
2021/12/01 00:14:40;;;;;;;12.03;2.00;;;;;;;6.32;100.00;98220.94;10456997;28;20209;-74
2021/12/01 00:19:41;;;;;;;4.93;1.60;;;;;;;6.40;100.00;98218.22;10454121;28;20885;-75
2021/12/01 00:24:41;;;;;;;9.40;1.90;;;;;;;6.36;100.00;98217.72;10454258;28;20444;-74
2021/12/01 00:29:41;;;;;;;7.03;2.13;;;;;;;6.18;100.00;98230.53;10456642;28;20213;-74
2021/12/01 00:34:42;;;;;;;8.60;1.80;;;;;;;6.32;100.00;98221.78;10453897;28;20215;-72
2021/12/01 00:39:42;;;;;;;7.97;1.90;;;;;;;6.38;100.00;98214.91;10451197;28;20216;-73
2021/12/01 00:44:47;;;;;;;13.77;1.90;;;;;;;6.34;100.00;98208.28;10453253;28;20618;-74
2021/12/01 00:49:47;;;;;;;7.47;2.03;;;;;;;6.79;100.00;98213.53;10476433;28;20564;-75
2021/12/01 00:54:47;;;;;;;7.07;1.92;;;;;;;6.32;100.00;98210.28;10460133;28;20205;-74
2021/12/01 00:59:47;;;;;;;9.63;2.22;;;;;;;6.40;100.00;98224.38;10453200;28;20213;-74
2021/12/01 01:04:47;;;;;;;12.43;2.72;;;;;;;6.45;100.00;98221.16;10456901;28;20262;-73
2021/12/01 01:09:48;;;;;;;5.05;1.48;;;;;;;6.20;100.00;98209.03;10461341;28;20227;-74
2021/12/01 01:20:13;;;;;;;4.47;1.42;;;;;;;6.03;100.00;98216.31;10461167;28;20568;-72
2021/12/01 01:25:13;;;;;;;8.35;1.92;;;;;;;6.15;100.00;98214.09;10460677;28;20255;-75
2021/12/01 01:30:13;;;;;;;7.55;1.60;;;;;;;6.48;100.00;98196.84;10465181;28;20316;-74
2021/12/01 01:35:14;;;;;;;5.00;1.40;;;;;;;6.64;100.00;98191.38;10459399;28;20205;-75
2021/12/01 01:40:14;;;;;;;6.43;1.50;;;;;;;6.12;100.00;98193.13;10460291;28;20229;-74
2021/12/01 01:45:16;;;;;;;6.40;1.60;;;;;;;6.57;100.00;98193.09;10460183;28;20689;-74
2021/12/01 01:50:35;;;;;;;8.20;1.52;;;;;;;6.70;100.00;98189.81;10459742;28;20272;-74
2021/12/01 01:55:40;;;;;;;5.43;1.38;;;;;;;6.87;100.00;98188.63;10465247;28;20213;-74
2021/12/01 02:00:49;;;;;;;9.32;1.63;;;;;;;6.83;100.00;98177.53;10459302;28;20232;-72
2021/12/01 02:05:51;;;;;;;5.82;1.38;;;;;;;7.09;100.00;98176.25;10469184;28;20634;-74
2021/12/01 02:10:51;;;;;;;7.60;1.85;;;;;;;6.77;100.00;98167.63;10459296;28;20231;-74
2021/12/01 02:15:53;;;;;;;4.45;1.52;;;;;;;6.79;100.00;98157.59;10466451;28;20231;-75
2021/12/01 02:21:13;;;;;;;5.63;1.67;;;;;;;6.92;100.00;98158.81;10458826;28;20213;-75
2021/12/01 02:26:16;;;;;;;4.97;1.27;;;;;;;6.74;100.00;98151.16;10457550;28;20221;-75
2021/12/01 02:31:17;;;;;;;4.63;1.45;;;;;;;6.82;100.00;98143.91;10467025;28;20693;-74
2021/12/01 02:36:17;;;;;;;5.20;1.42;;;;;;;6.51;100.00;98140.59;10458785;28;20187;-74
2021/12/01 02:41:25;;;;;;;5.20;1.45;;;;;;;6.99;100.00;98127.75;10466500;28;20276;-74
2021/12/01 02:46:26;;;;;;;4.00;1.67;;;;;;;7.10;100.00;98119.28;10438174;28;20295;-75
2021/12/01 02:51:28;;;;;;;4.22;1.70;;;;;;;6.92;100.00;98113.50;10458389;28;20213;-74
2021/12/01 02:56:31;;;;;;;4.70;1.40;;;;;;;6.96;100.00;98101.47;10457446;28;20213;-75
2021/12/01 03:01:32;;;;;;;5.60;1.80;;;;;;;7.17;100.00;98104.22;10455192;28;20224;-75
2021/12/01 03:06:35;;;;;;;5.68;1.55;;;;;;;7.15;100.00;98100.91;10455854;28;20680;-74
2021/12/01 03:11:37;;;;;;;5.93;1.65;;;;;;;7.02;100.00;98090.09;10448617;28;20271;-74
2021/12/01 03:16:38;;;;;;;7.22;1.40;;;;;;;7.18;100.00;98079.22;10454137;28;20722;-73
2021/12/01 03:21:40;;;;;;;7.70;1.60;;;;;;;7.19;100.00;98076.38;10456440;28;20291;-73
2021/12/01 03:26:40;;;;;;;3.63;1.60;;;;;;;6.95;100.00;98074.00;10446781;28;20724;-75
2021/12/01 03:31:41;;;;;;;3.08;1.00;;;;;;;7.08;100.00;98063.50;10455231;28;20213;-75
2021/12/01 03:36:41;;;;;;;6.75;1.60;;;;;;;7.09;100.00;98048.34;10453168;28;20451;-75
2021/12/01 03:41:41;;;;;;;4.82;1.70;;;;;;;6.96;100.00;98053.50;10455266;28;20220;-75
2021/12/01 03:46:41;;;;;;;6.75;1.80;;;;;;;6.87;100.00;98044.78;10455562;28;20213;-74
2021/12/01 03:51:42;;;;;;;7.60;2.43;;;;;;;6.83;100.00;98033.69;10455166;28;20217;-74
2021/12/01 03:56:42;;;;;;;8.05;2.40;;;;;;;6.21;100.00;98016.44;10458013;28;20514;-75
2021/12/01 04:01:42;;;;;;;7.15;2.38;;;;;;;6.61;100.00;97997.34;10456935;28;20181;-74
2021/12/01 04:06:42;;;;;;;9.50;2.03;;;;;;;6.73;100.00;97985.22;10455921;28;20208;-74
2021/12/01 04:11:43;;;;;;;8.93;2.10;;;;;;;6.69;100.00;97967.97;10454508;28;20299;-74
2021/12/01 04:16:43;;;;;;;5.38;2.15;;;;;;;6.73;100.00;97958.59;10465851;28;20252;-73
2021/12/01 04:21:44;;;;;;;4.03;2.33;;;;;;;6.52;100.00;97953.22;10468458;28;20197;-74
2021/12/01 04:26:44;;;;;;;3.28;1.88;;;;;;;6.85;100.00;97934.97;10470135;28;20228;-74
2021/12/01 04:31:44;;;;;;;1.85;1.58;;;;;;;6.56;100.00;97925.19;10466475;28;20212;-73
2021/12/01 04:36:45;;;;;;;3.13;1.70;;;;;;;6.70;100.00;97921.66;10461033;28;20823;-75
2021/12/01 04:41:52;;;;;;;3.58;1.25;;;;;;;6.46;100.00;97914.03;10446864;28;20239;-73
2021/12/01 04:46:56;;;;;;;1.73;1.20;;;;;;;6.51;100.00;97895.66;10461180;28;20209;-73
2021/12/01 04:51:58;;;;;;;2.65;1.40;;;;;;;6.64;100.00;97882.50;10461409;28;20539;-73
2021/12/01 04:57:01;;;;;;;3.13;1.15;;;;;;;6.64;100.00;97890.47;10453538;28;20648;-73
2021/12/01 05:02:01;;;;;;;2.15;1.30;;;;;;;6.67;100.00;97866.16;10453462;28;20216;-74
2021/12/01 05:07:01;;;;;;;1.42;1.15;;;;;;;6.76;100.00;97857.03;10462626;28;20201;-74
2021/12/01 05:12:06;;;;;;;2.25;1.38;;;;;;;6.58;100.00;97848.63;10453322;28;20232;-74
2021/12/01 05:17:07;;;;;;;1.40;1.30;;;;;;;6.65;100.00;97844.19;10453207;28;20448;-74
2021/12/01 05:22:07;;;;;;;3.40;1.10;;;;;;;6.79;100.00;97834.50;10459946;28;20177;-73
2021/12/01 05:27:08;;;;;;;2.67;1.45;;;;;;;6.60;100.00;97829.81;10458173;28;20180;-74
2021/12/01 05:32:09;;;;;;;1.60;1.50;;;;;;;6.61;100.00;97808.31;10459455;28;20212;-75
2021/12/01 05:37:09;;;;;;;1.48;1.30;;;;;;;6.73;100.00;97809.47;10452662;28;20589;-74
2021/12/01 05:42:09;;;;;;;1.50;1.40;;;;;;;6.71;100.00;97800.00;10456638;28;20232;-76
2021/12/01 05:47:10;;;;;;;2.40;1.50;;;;;;;6.61;100.00;97789.66;10452321;28;20220;-75
2021/12/01 05:52:12;;;;;;;2.15;1.50;;;;;;;6.88;100.00;97797.91;10454608;28;20212;-76
2021/12/01 05:57:13;;;;;;;2.05;1.20;;;;;;;6.88;100.00;97779.25;10459464;28;20248;-75
2021/12/01 06:02:13;;;;;;;2.55;1.33;;;;;;;6.88;100.00;97780.06;10459511;28;20293;-76
2021/12/01 06:07:14;;;;;;;3.25;1.20;;;;;;;6.50;100.00;97776.88;10455210;28;20300;-74
2021/12/01 06:12:14;;;;;;;1.60;1.40;;;;;;;6.99;100.00;97770.75;10467020;28;20227;-74
2021/12/01 06:17:15;;;;;;;1.60;1.50;;;;;;;6.25;100.00;97755.16;10463322;28;20205;-72
2021/12/01 06:22:15;;;;;;;2.05;1.85;;;;;;;6.90;100.00;97761.25;10458472;28;20240;-75
2021/12/01 06:27:15;;;;;;;2.63;2.42;;;;;;;6.89;100.00;97748.94;10458400;28;20470;-74
2021/12/01 06:32:15;;;;;;;2.20;1.80;;;;;;;6.78;100.00;97743.13;10454602;28;20632;-73
2021/12/01 06:37:17;;;;;;;1.70;1.45;;;;;;;6.99;100.00;97739.59;10457919;28;20212;-73
2021/12/01 06:42:18;;;;;;;2.67;1.67;;;;;;;6.97;100.00;97735.47;10474687;28;20225;-75
2021/12/01 06:47:18;;;;;;;1.38;1.23;;;;;;;7.33;100.00;97727.31;10452358;28;20922;-75
2021/12/01 06:52:19;;;;;;;5.90;2.10;;;;;;;7.03;100.00;97718.72;10458694;28;20216;-73
2021/12/01 06:57:19;;;;;;;0.95;0.95;;;;;;;6.53;100.00;97725.91;10462658;28;20493;-73
2021/12/01 07:02:20;;;;;;;2.17;1.23;;;;;;;7.04;100.00;97715.03;10457742;28;20208;-74
2021/12/01 07:07:21;;;;;;;1.45;0.93;;;;;;;6.79;100.00;97707.47;10462366;28;20216;-73
2021/12/01 07:12:22;;;;;;;1.95;1.38;;;;;;;6.90;100.00;97698.13;10461628;28;20212;-73
2021/12/01 07:17:23;;;;;;;1.35;1.00;;;;;;;7.07;100.00;97682.66;10448853;28;20205;-74
2021/12/01 07:22:23;;;;;;;1.63;1.52;;;;;;;7.14;100.00;97679.03;10458070;28;20548;-72
2021/12/01 07:27:23;;;;;;;1.77;1.60;;;;;;;7.38;100.00;97675.03;10458150;28;20209;-73
2021/12/01 07:32:24;;;;;;;1.73;0.98;;;;;;;7.57;100.00;97658.31;10454862;28;20555;-72
2021/12/01 07:37:24;;;;;;;1.42;1.10;;;;;;;7.65;100.00;97648.47;10464966;28;20220;-72
2021/12/01 07:42:24;;;;;;;1.17;1.00;;;;;;;7.56;100.00;97635.31;10455166;28;20767;-73
2021/12/01 07:47:24;;;;;;;1.33;1.17;;;;;;;7.64;100.00;97634.31;10459132;28;20216;-73
2021/12/01 07:52:25;;;;;;;1.63;1.00;;;;;;;7.57;100.00;97636.97;10457663;28;20460;-73
2021/12/01 07:57:25;;;;;;;1.13;1.02;;;;;;;7.77;100.00;97620.22;10453953;28;20557;-73
2021/12/01 08:02:26;;;;;;;0.80;0.80;;;;;;;7.84;100.00;97626.38;10454448;28;20213;-73
2021/12/01 08:07:28;;;;;;;1.35;1.25;;;;;;;7.92;100.00;97632.34;10450233;28;20195;-74
2021/12/01 08:12:28;;;;;;;1.40;1.30;;;;;;;7.37;100.00;97625.41;10475867;28;20873;-73
2021/12/01 08:17:28;;;;;;;2.90;2.35;;;;;;;7.36;100.00;97637.13;10456211;28;20224;-73
2021/12/01 08:22:28;;;;;;;2.47;1.65;;;;;;;7.75;100.00;97632.91;10446291;28;20233;-74
2021/12/01 08:27:29;;;;;;;1.65;1.55;;;;;;;7.63;100.00;97625.50;10454093;28;20213;-73
2021/12/01 08:32:29;;;;;;;1.52;1.30;;;;;;;7.54;100.00;97605.38;10453690;28;21105;-75
2021/12/01 08:37:29;;;;;;;1.30;1.20;;;;;;;7.07;100.00;97605.41;10453156;28;20233;-74
2021/12/01 08:42:30;;;;;;;1.63;1.52;;;;;;;7.62;100.00;97591.84;10454009;28;20542;-71
2021/12/01 08:47:31;;;;;;;1.55;1.20;;;;;;;7.29;100.00;97585.59;10448168;28;20201;-73
2021/12/01 08:52:31;;;;;;;1.13;1.13;;;;;;;7.39;100.00;97574.56;10456145;28;20213;-73
2021/12/01 08:57:32;;;;;;;1.25;1.15;;;;;;;6.70;100.00;97564.84;10463080;28;20243;-73
2021/12/01 09:02:33;;;;;;;1.02;1.02;;;;;;;7.40;100.00;97557.56;10451065;28;20247;-74
2021/12/01 09:07:34;;;;;;;1.83;1.20;;;;;;;7.26;100.00;97539.91;10463409;28;20209;-74
2021/12/01 09:12:34;;;;;;;2.13;1.60;;;;;;;7.15;100.00;97526.13;10452518;28;20225;-71
2021/12/01 09:17:34;;;;;;;1.77;1.48;;;;;;;7.08;100.00;97513.81;10453341;28;20470;-73
2021/12/01 09:22:34;;;;;;;1.55;1.05;;;;;;;7.00;100.00;97496.16;10452517;28;20700;-73
2021/12/01 09:27:35;;;;;;;1.35;1.25;;;;;;;7.00;100.00;97490.00;10457156;28;20613;-74
2021/12/01 09:32:37;;;;;;;0.88;0.88;;;;;;;6.74;100.00;97485.41;10455041;28;20236;-73
2021/12/01 09:37:38;;;;;;;1.20;1.10;;;;;;;6.98;100.00;97476.88;10472379;28;20185;-72
2021/12/01 09:42:49;;;;;;;1.08;1.00;;;;;;;7.45;100.00;97457.28;10460465;28;20209;-71
2021/12/01 09:47:50;;;;;;;1.73;1.02;;;;;;;7.41;100.00;97461.38;10461976;28;20221;-73
2021/12/01 09:52:51;;;;;;;1.40;1.00;;;;;;;7.66;100.00;97439.44;10461321;28;20216;-74
2021/12/01 09:58:06;;;;;;;2.08;0.88;;;;;;;7.28;100.00;97434.72;10455373;28;20212;-71
2021/12/01 10:03:07;;;;;;;0.77;0.50;;;;;;;7.30;100.00;97443.31;10461139;28;20286;-72
2021/12/01 10:08:12;;;;;;;0.77;0.77;;;;;;;7.37;100.00;97446.81;10462084;28;20270;-71
2021/12/01 10:13:13;;;;;;;0.80;0.80;;;;;;;8.10;100.00;97412.94;10460606;28;20221;-73
2021/12/01 10:18:15;;;;;;;0.80;0.80;;;;;;;8.28;100.00;97415.75;10465796;28;20209;-74
2021/12/01 10:23:16;;;;;;;0.60;0.60;;;;;;;8.13;100.00;97417.81;10458675;28;20235;-75
2021/12/01 10:28:38;;;;;;;1.00;0.90;;;;;;;8.00;100.00;97396.53;10460371;28;20216;-74
2021/12/01 10:33:38;;;;;;;2.88;0.70;;;;;;;7.93;100.00;97401.06;10453173;28;20593;-73
2021/12/01 10:38:43;;;;;;;0.30;0.30;;;;;;;7.74;100.00;97359.22;10460155;28;20232;-72
2021/12/01 10:43:47;;;;;;;0.55;0.45;;;;;;;8.25;100.00;97368.13;10465555;28;20312;-73
2021/12/01 10:49:03;;;;;;;0.30;0.30;;;;;;;7.38;100.00;97349.84;10471864;28;20216;-73
2021/12/01 10:54:05;;;;;;;0.38;0.38;;;;;;;7.58;100.00;97350.66;10464340;28;20223;-74
2021/12/01 10:59:10;;;;;;;0.40;0.40;;;;;;;7.82;100.00;97346.50;10445891;28;20295;-73
2021/12/01 11:04:11;;;;;;;0.40;0.40;;;;;;;7.70;100.00;97331.34;10464845;28;20240;-75
2021/12/01 11:09:12;;;;;;;0.50;0.43;;;;;;;7.62;100.00;97313.72;10465898;28;20259;-74
2021/12/01 11:14:16;;;;;;;0.52;0.52;;;;;;;7.73;100.00;97318.41;10458283;28;20217;-74
2021/12/01 11:19:31;;;;;;;0.40;0.40;;;;;;;7.67;100.00;97321.09;10466987;28;20174;-75
2021/12/01 11:24:31;;;;;;;0.30;0.30;;;;;;;7.70;100.00;97310.81;10452499;28;20497;-74
2021/12/01 11:29:32;;;;;;;1.13;0.55;;;;;;;8.16;100.00;97321.34;10468777;28;20208;-73
2021/12/01 11:34:32;;;;;;;0.50;0.50;;;;;;;8.01;100.00;97318.13;10451500;28;20315;-73
2021/12/01 11:39:32;;;;;;;0.63;0.63;;;;;;;7.98;100.00;97305.19;10457206;28;20197;-72
2021/12/01 11:44:33;;;;;;;0.95;0.80;;;;;;;8.04;100.00;97307.00;10473340;28;20232;-75
2021/12/01 11:49:33;;;;;;;0.50;0.50;;;;;;;7.90;100.00;97294.75;10456677;28;20689;-74
2021/12/01 11:54:42;;;;;;;0.65;0.65;;;;;;;8.27;100.00;97275.31;10456502;28;20205;-73
2021/12/01 11:59:49;;;;;;;0.80;0.80;;;;;;;8.20;100.00;97269.16;10468421;28;20205;-73
2021/12/01 12:04:51;;;;;;;0.90;0.90;;;;;;;8.64;100.00;97251.47;10456534;28;20209;-74
2021/12/01 12:10:08;;;;;;;0.85;0.85;;;;;;;8.40;100.00;97225.56;10447829;28;20209;-72
2021/12/01 12:15:09;;;;;;;0.60;0.55;;;;;;;8.43;100.00;97220.63;10454058;28;20216;-73
2021/12/01 12:20:27;;;;;;;0.75;0.75;;;;;;;8.34;100.00;97212.06;10456201;28;20197;-72
2021/12/01 12:25:39;;;;;;;0.80;0.80;;;;;;;8.93;100.00;97197.41;10448027;28;20676;-74
2021/12/01 12:30:40;;;;;;;0.80;0.50;;;;;;;8.86;100.00;97193.97;10448032;28;20209;-72
2021/12/01 12:35:43;;;;;;;0.70;0.70;;;;;;;9.01;100.00;97202.47;10455185;28;20221;-72
2021/12/01 12:40:44;;;;;;;0.70;0.70;;;;;;;8.47;100.00;97204.97;10475406;28;20251;-73
2021/12/01 12:46:17;;;;;;;2.00;1.35;;;;;;;8.88;100.00;97170.50;10455586;28;20205;-73
2021/12/01 12:51:38;;;;;;;1.42;0.90;;;;;;;8.74;100.00;97167.16;10455843;28;20217;-74
2021/12/01 12:56:47;;;;;;;0.82;0.77;;;;;;;8.78;100.00;97156.88;10435288;28;20213;-74
2021/12/01 13:01:54;;;;;;;0.82;0.82;;;;;;;9.25;100.00;97138.50;10454192;28;20224;-76
2021/12/01 13:06:54;;;;;;;0.73;0.68;;;;;;;8.73;100.00;97135.31;10458372;28;20223;-75
2021/12/01 13:11:57;;;;;;;0.50;0.50;;;;;;;8.69;100.00;97123.47;10461981;28;20221;-75
2021/12/01 13:17:01;;;;;;;1.63;0.65;;;;;;;9.02;100.00;97123.94;10454666;28;20225;-75
2021/12/01 13:22:11;;;;;;;1.55;0.90;;;;;;;9.01;100.00;97116.97;10457343;28;20182;-73
2021/12/01 13:27:11;;;;;;;0.95;0.95;;;;;;;9.20;100.00;97104.41;10461601;28;20185;-74
2021/12/01 13:32:15;;;;;;;1.08;0.98;;;;;;;9.43;100.00;97098.38;10461004;28;20584;-75
2021/12/01 13:37:15;;;;;;;1.75;0.77;;;;;;;9.35;100.00;97082.63;10460426;28;20251;-73
2021/12/01 13:42:18;;;;;;;2.35;0.70;;;;;;;9.41;100.00;97068.38;10460667;28;20251;-75
2021/12/01 13:47:22;;;;;;;1.52;0.80;;;;;;;9.28;100.00;97063.19;10460192;28;20217;-73
2021/12/01 13:52:33;;;;;;;0.68;0.68;;;;;;;9.02;100.00;97059.00;10460611;28;20213;-73
2021/12/01 13:57:34;;;;;;;0.40;0.40;;;;;;;9.62;100.00;97059.84;10471336;28;20645;-74
2021/12/01 14:02:34;;;;;;;0.43;0.43;;;;;;;9.27;100.00;97066.91;10460180;28;20220;-73
2021/12/01 14:07:47;;;;;;;0.45;0.45;;;;;;;9.16;100.00;97054.28;10458639;28;20213;-75
2021/12/01 14:12:52;;;;;;;0.43;0.43;;;;;;;9.10;100.00;97040.78;10459543;28;20738;-73
2021/12/01 14:17:53;;;;;;;0.80;0.80;;;;;;;9.04;100.00;97028.31;10460161;28;20213;-74
2021/12/01 14:22:55;;;;;;;0.43;0.43;;;;;;;9.21;100.00;97014.31;10458762;28;20217;-75
2021/12/01 14:28:24;;;;;;;0.47;0.43;;;;;;;9.11;100.00;97004.19;10459443;28;20224;-75
2021/12/01 14:33:24;;;;;;;0.43;0.43;;;;;;;9.21;100.00;97006.31;10458088;28;20221;-73
2021/12/01 14:38:25;;;;;;;0.43;0.30;;;;;;;9.28;100.00;97009.72;10459086;28;20669;-74
2021/12/01 14:43:30;;;;;;;0.57;0.57;;;;;;;9.63;100.00;96986.56;10453965;28;20246;-73
2021/12/01 14:48:35;;;;;;;0.50;0.50;;;;;;;9.66;100.00;96991.47;10459238;28;20650;-71
2021/12/01 14:53:41;;;;;;;0.55;0.52;;;;;;;9.93;100.00;96983.03;10459038;28;20217;-76
2021/12/01 14:58:50;;;;;;;0.65;0.65;;;;;;;9.69;100.00;96983.00;10458334;28;20216;-74
2021/12/01 15:03:50;;;;;;;0.70;0.70;;;;;;;9.95;100.00;96963.03;10458582;28;20344;-74
2021/12/01 15:08:51;;;;;;;0.45;0.45;;;;;;;9.88;100.00;96965.78;10452401;28;20276;-74
2021/12/01 15:13:53;;;;;;;1.17;0.73;;;;;;;9.80;100.00;96959.97;10458996;28;20201;-73
2021/12/01 15:19:01;;;;;;;1.35;0.90;;;;;;;10.22;100.00;96950.81;10458254;28;20260;-73
2021/12/01 15:24:05;;;;;;;0.90;0.90;;;;;;;9.99;100.00;96947.31;10458056;28;20587;-73
2021/12/01 15:29:09;;;;;;;0.82;0.82;;;;;;;9.82;100.00;96939.97;10457678;28;20231;-73
2021/12/01 15:34:09;;;;;;;0.60;0.55;;;;;;;9.71;100.00;96932.72;10461354;28;20286;-75
2021/12/01 15:39:10;;;;;;;0.70;0.70;;;;;;;10.10;100.00;96917.06;10459452;28;20255;-72
2021/12/01 15:44:12;;;;;;;0.60;0.60;;;;;;;10.41;100.00;96911.34;10464585;28;20570;-72
2021/12/01 15:49:12;;;;;;;0.85;0.85;;;;;;;9.82;100.00;96910.53;10458022;28;20304;-75
2021/12/01 15:54:13;;;;;;;0.90;0.90;;;;;;;10.11;100.00;96894.59;10461073;28;20209;-73
2021/12/01 15:59:13;;;;;;;0.65;0.65;;;;;;;10.13;100.00;96895.16;10445395;28;20209;-74
2021/12/01 16:04:15;;;;;;;0.73;0.70;;;;;;;10.06;100.00;96889.13;10456707;28;20243;-73
2021/12/01 16:09:18;;;;;;;0.85;0.50;;;;;;;9.53;100.00;96895.41;10463768;28;20209;-74
2021/12/01 16:14:18;;;;;;;1.08;0.50;;;;;;;10.13;100.00;96881.78;10457032;28;20665;-74
2021/12/01 16:19:19;;;;;;;0.65;0.65;;;;;;;10.17;100.00;96882.94;10451045;28;20220;-73
2021/12/01 16:24:19;;;;;;;0.38;0.38;;;;;;;10.04;100.00;96880.53;10456169;28;20216;-74
2021/12/01 16:29:20;;;;;;;0.60;0.60;;;;;;;10.17;100.00;96869.56;10448055;28;20546;-76
2021/12/01 16:34:26;;;;;;;0.63;0.43;;;;;;;9.87;100.00;96880.41;10456456;28;20522;-73
2021/12/01 16:39:26;;;;;;;0.63;0.60;;;;;;;10.07;100.00;96880.84;10456873;28;20188;-75
2021/12/01 16:44:27;;;;;;;0.80;0.50;;;;;;;10.08;100.00;96870.97;10456233;28;20235;-74
2021/12/01 16:49:27;;;;;;;0.22;0.22;;;;;;;10.45;100.00;96861.63;10454251;28;20489;-74
2021/12/01 16:54:27;;;;;;;0.70;0.70;;;;;;;10.49;100.00;96857.41;10454225;28;20564;-74
2021/12/01 16:59:27;;;;;;;0.40;0.40;;;;;;;10.40;100.00;96852.66;10454288;28;20575;-74
2021/12/01 17:04:31;;;;;;;1.13;0.55;;;;;;;10.30;100.00;96847.91;10454641;28;20209;-74
2021/12/01 17:09:32;;;;;;;0.43;0.43;;;;;;;10.44;100.00;96838.56;10472475;28;20316;-73
2021/12/01 17:14:34;;;;;;;0.60;0.60;;;;;;;10.44;100.00;96833.22;10455781;28;20219;-74
2021/12/01 17:19:34;;;;;;;0.45;0.45;;;;;;;10.15;100.00;96828.81;10454069;28;20670;-75
2021/12/01 17:24:35;;;;;;;0.93;0.60;;;;;;;10.42;100.00;96819.22;10453694;28;20236;-74
2021/12/01 17:29:36;;;;;;;0.73;0.73;;;;;;;10.12;100.00;96797.19;10453372;28;21033;-74
2021/12/01 17:34:37;;;;;;;0.82;0.82;;;;;;;9.77;100.00;96790.03;10458182;28;20681;-75
2021/12/01 17:39:39;;;;;;;0.70;0.70;;;;;;;10.05;100.00;96785.78;10462392;28;20240;-73
2021/12/01 17:44:40;;;;;;;0.50;0.50;;;;;;;10.05;100.00;96797.31;10465313;28;20278;-73
2021/12/01 17:49:40;;;;;;;1.23;0.70;;;;;;;10.10;100.00;96793.94;10466837;28;20216;-73
2021/12/01 17:54:41;;;;;;;0.60;0.60;;;;;;;10.04;100.00;96805.59;10467830;28;20279;-72
2021/12/01 17:59:41;;;;;;;0.82;0.82;;;;;;;10.42;100.00;96795.13;10460868;28;20496;-75
2021/12/01 18:04:43;;;;;;;0.80;0.80;;;;;;;10.43;100.00;96799.44;10466719;28;20177;-71
2021/12/01 18:09:43;;;;;;;0.90;0.90;;;;;;;10.12;100.00;96775.78;10482191;28;20192;-74
2021/12/01 18:14:44;;;;;;;0.60;0.60;;;;;;;10.43;100.00;96783.38;10495743;28;20208;-74
2021/12/01 18:19:44;;;;;;;0.60;0.60;;;;;;;10.16;100.00;96771.56;10495841;28;20943;-72
2021/12/01 18:24:46;;;;;;;0.80;0.80;;;;;;;10.16;100.00;96774.22;10495907;28;20721;-71
2021/12/01 18:29:47;;;;;;;0.63;0.52;;;;;;;10.34;100.00;96779.44;10497372;28;20220;-72
2021/12/01 18:34:47;;;;;;;0.80;0.52;;;;;;;10.02;100.00;96771.03;10475840;28;20215;-73
2021/12/01 18:39:47;;;;;;;0.77;0.60;;;;;;;9.79;100.00;96777.22;10464801;28;20201;-75
2021/12/01 18:44:48;;;;;;;0.60;0.60;;;;;;;10.08;100.00;96782.63;10464235;28;20205;-74
2021/12/01 18:49:49;;;;;;;0.50;0.50;;;;;;;9.88;100.00;96775.81;10465553;28;20240;-73
2021/12/01 18:54:51;;;;;;;0.47;0.38;;;;;;;10.08;100.00;96777.28;10464283;28;20235;-73
2021/12/01 18:59:51;;;;;;;0.55;0.55;;;;;;;10.25;100.00;96780.88;10458057;28;20213;-75
2021/12/01 19:04:51;;;;;;;0.35;0.35;;;;;;;10.10;100.00;96772.53;10459458;28;20542;-74
2021/12/01 19:09:52;;;;;;;0.47;0.47;;;;;;;10.02;100.00;96775.56;10462816;28;20800;-73
2021/12/01 19:14:52;;;;;;;0.30;0.30;;;;;;;10.17;100.00;96768.69;10477505;28;20215;-73
2021/12/01 19:19:53;;;;;;;0.43;0.30;;;;;;;10.01;100.00;96768.59;10463412;28;20240;-73
2021/12/01 19:24:53;;;;;;;0.50;0.50;;;;;;;10.55;100.00;96781.44;10467452;28;20544;-74
2021/12/01 19:29:53;;;;;;;0.40;0.40;;;;;;;10.35;100.00;96781.06;10459333;28;20247;-75
2021/12/01 19:34:54;;;;;;;0.20;0.20;;;;;;;9.86;100.00;96788.63;10465802;28;20177;-73
2021/12/01 19:39:54;;;;;;;0.30;0.30;;;;;;;9.75;100.00;96808.19;10450574;28;20205;-74
2021/12/01 19:44:57;;;;;;;0.30;0.30;;;;;;;9.73;100.00;96794.22;10466043;28;20292;-73
2021/12/01 19:49:58;;;;;;;0.93;0.32;;;;;;;9.68;100.00;96804.81;10455639;28;20557;-75
2021/12/01 19:55:03;;;;;;;0.40;0.40;;;;;;;9.74;100.00;96795.84;10460577;28;20217;-73
2021/12/01 20:00:10;;;;;;;0.52;0.52;;;;;;;9.87;100.00;96784.09;10448777;28;20825;-73
2021/12/01 20:05:12;;;;;;;0.32;0.32;;;;;;;9.86;100.00;96810.03;10452807;28;20301;-74
2021/12/01 20:10:17;;;;;;;0.30;0.30;;;;;;;9.51;100.00;96811.91;10450062;28;20224;-74
2021/12/01 20:15:19;;;;;;;0.45;0.45;;;;;;;9.54;100.00;96822.13;10453151;28;20208;-73
2021/12/01 20:20:21;;;;;;;0.52;0.52;;;;;;;9.40;100.00;96818.06;10454179;28;20672;-73
2021/12/01 20:25:25;;;;;;;0.35;0.35;;;;;;;9.43;100.00;96814.94;10454951;28;20665;-75
2021/12/01 20:30:26;;;;;;;0.40;0.40;;;;;;;9.43;100.00;96852.38;10454722;28;20260;-75
2021/12/01 20:35:32;;;;;;;0.60;0.45;;;;;;;9.45;100.00;96828.91;10454618;28;20227;-74
2021/12/01 20:40:36;;;;;;;0.88;0.80;;;;;;;9.38;100.00;96834.34;10454834;28;20234;-74
2021/12/01 20:45:51;;;;;;;0.80;0.70;;;;;;;9.28;100.00;96844.81;10485647;28;20269;-72
2021/12/01 21:01:32;;;;;;;0.80;0.43;;;;;;;9.12;100.00;96862.31;10482714;28;20212;-70
2021/12/01 21:06:36;;;;;;;3.03;0.73;;;;;;;8.99;100.00;96857.16;10464558;28;20265;-73
2021/12/01 21:11:39;;;;;;;0.73;0.60;;;;;;;8.80;100.00;96852.91;10465799;28;20232;-73
2021/12/01 21:16:45;;;;;;;0.55;0.55;;;;;;;8.72;100.00;96851.38;10485305;28;20187;-73
2021/12/01 21:21:48;;;;;;;0.85;0.65;;;;;;;8.70;100.00;96855.34;10466575;28;20184;-73
2021/12/01 21:26:49;;;;;;;0.70;0.70;;;;;;;8.71;100.00;96863.09;10458385;28;20219;-70
2021/12/01 21:31:49;;;;;;;1.45;0.80;;;;;;;8.64;100.00;96850.88;10494221;28;20204;-72
2021/12/01 21:36:50;;;;;;;1.02;1.00;;;;;;;8.57;100.00;96864.34;10489405;28;20255;-73
2021/12/01 21:41:50;;;;;;;0.97;0.90;;;;;;;8.76;100.00;96851.75;10461362;28;20362;-73
2021/12/01 21:46:51;;;;;;;0.73;0.73;;;;;;;8.51;100.00;96859.09;10432213;28;20475;-74
2021/12/01 21:51:51;;;;;;;0.88;0.82;;;;;;;8.65;100.00;96871.22;10452785;28;20557;-74
2021/12/01 21:56:51;;;;;;;0.60;0.60;;;;;;;8.34;100.00;96865.03;10453394;28;20209;-73
2021/12/01 22:01:53;;;;;;;0.52;0.40;;;;;;;8.27;100.00;96885.63;10454497;28;20212;-75
2021/12/01 22:06:53;;;;;;;0.70;0.70;;;;;;;8.45;100.00;96870.69;10447441;28;20245;-73
2021/12/01 22:11:55;;;;;;;0.90;0.63;;;;;;;8.76;100.00;96875.81;10443793;28;20218;-74
2021/12/01 22:16:55;;;;;;;0.70;0.70;;;;;;;8.68;100.00;96876.13;10437642;28;20535;-72
2021/12/01 22:21:59;;;;;;;0.55;0.50;;;;;;;8.48;100.00;96881.69;10457156;28;20209;-72
2021/12/01 22:27:02;;;;;;;0.50;0.50;;;;;;;8.68;100.00;96894.81;10425582;28;20271;-73
2021/12/01 22:32:06;;;;;;;0.80;0.80;;;;;;;8.56;100.00;96888.59;10437151;28;20229;-71
2021/12/01 22:37:10;;;;;;;1.10;0.60;;;;;;;8.52;100.00;96885.56;10449083;28;20245;-72
2021/12/01 22:42:12;;;;;;;0.50;0.50;;;;;;;8.49;100.00;96885.19;10458841;28;20213;-73
2021/12/01 22:47:14;;;;;;;1.45;0.75;;;;;;;8.40;100.00;96910.56;10474659;28;20200;-73
2021/12/01 22:52:14;;;;;;;1.73;1.10;;;;;;;7.92;100.00;96972.59;10458115;28;20292;-72
2021/12/01 22:57:17;;;;;;;0.60;0.60;;;;;;;7.29;100.00;96951.34;10459513;28;20209;-71
2021/12/01 23:02:19;;;;;;;0.45;0.40;;;;;;;6.64;100.00;96963.97;10462953;28;20209;-72
2021/12/01 23:07:23;;;;;;;0.25;0.25;;;;;;;6.58;100.00;96958.69;10464104;28;20516;-71
2021/12/01 23:12:23;;;;;;;0.50;0.40;;;;;;;6.45;100.00;96962.19;10450944;28;20251;-73
2021/12/01 23:17:23;;;;;;;0.20;0.20;;;;;;;6.43;100.00;96950.97;10456816;28;20666;-72
2021/12/01 23:22:24;;;;;;;0.47;0.47;;;;;;;6.33;100.00;96966.56;10456682;28;20197;-73
2021/12/01 23:27:32;;;;;;;0.70;0.43;;;;;;;6.64;100.00;96979.97;10462106;28;20517;-72
2021/12/01 23:33:00;;;;;;;0.30;0.30;;;;;;;6.41;100.00;96985.78;10453705;28;20225;-72
2021/12/01 23:38:03;;;;;;;0.63;0.30;;;;;;;6.42;100.00;96997.25;10454273;28;20217;-73
2021/12/01 23:43:05;;;;;;;1.92;0.98;;;;;;;6.58;100.00;96996.78;10457469;28;20225;-73